sensor_id;sensor_type;location;lat;lon;timestamp;P1;durP1;ratioP1;P2;durP2;ratioP2
41984;SDS011;28319;48.116;10.818;2023-02-28T00:00:34;3.03;;;2.70;;
41984;SDS011;28319;48.116;10.818;2023-02-28T00:05:37;3.13;;;2.07;;
41984;SDS011;28319;48.116;10.818;2023-02-28T00:10:39;3.13;;;2.10;;
41984;SDS011;28319;48.116;10.818;2023-02-28T00:15:42;2.70;;;1.73;;
41984;SDS011;28319;48.116;10.818;2023-02-28T00:20:45;3.17;;;2.30;;
41984;SDS011;28319;48.116;10.818;2023-02-28T00:25:47;2.57;;;2.10;;
41984;SDS011;28319;48.116;10.818;2023-02-28T00:30:50;2.90;;;1.97;;
41984;SDS011;28319;48.116;10.818;2023-02-28T00:36:00;3.57;;;2.30;;
41984;SDS011;28319;48.116;10.818;2023-02-28T00:41:03;2.03;;;1.80;;
41984;SDS011;28319;48.116;10.818;2023-02-28T00:46:07;2.20;;;2.10;;
41984;SDS011;28319;48.116;10.818;2023-02-28T00:51:09;3.43;;;2.40;;
41984;SDS011;28319;48.116;10.818;2023-02-28T00:56:11;2.17;;;2.00;;
41984;SDS011;28319;48.116;10.818;2023-02-28T01:01:15;2.40;;;2.07;;
41984;SDS011;28319;48.116;10.818;2023-02-28T01:06:17;2.80;;;2.30;;
41984;SDS011;28319;48.116;10.818;2023-02-28T01:11:19;2.03;;;1.90;;
41984;SDS011;28319;48.116;10.818;2023-02-28T01:16:22;2.40;;;2.20;;
41984;SDS011;28319;48.116;10.818;2023-02-28T01:21:24;2.23;;;2.00;;
41984;SDS011;28319;48.116;10.818;2023-02-28T01:26:26;2.10;;;2.00;;
41984;SDS011;28319;48.116;10.818;2023-02-28T01:31:30;4.27;;;2.10;;
41984;SDS011;28319;48.116;10.818;2023-02-28T01:36:32;4.77;;;2.60;;
41984;SDS011;28319;48.116;10.818;2023-02-28T01:41:34;2.40;;;2.20;;
41984;SDS011;28319;48.116;10.818;2023-02-28T01:46:37;2.53;;;2.30;;
41984;SDS011;28319;48.116;10.818;2023-02-28T01:51:41;2.60;;;2.13;;
41984;SDS011;28319;48.116;10.818;2023-02-28T01:56:47;3.37;;;2.37;;
41984;SDS011;28319;48.116;10.818;2023-02-28T02:01:53;3.13;;;2.43;;
41984;SDS011;28319;48.116;10.818;2023-02-28T02:06:56;2.40;;;2.20;;
41984;SDS011;28319;48.116;10.818;2023-02-28T02:12:02;2.50;;;2.30;;
41984;SDS011;28319;48.116;10.818;2023-02-28T02:17:21;2.43;;;2.23;;
41984;SDS011;28319;48.116;10.818;2023-02-28T02:22:59;2.43;;;2.20;;
41984;SDS011;28319;48.116;10.818;2023-02-28T02:28:39;3.00;;;2.20;;
41984;SDS011;28319;48.116;10.818;2023-02-28T02:34:07;2.53;;;2.30;;
41984;SDS011;28319;48.116;10.818;2023-02-28T02:39:24;2.37;;;1.93;;
41984;SDS011;28319;48.116;10.818;2023-02-28T02:44:34;2.17;;;2.03;;
41984;SDS011;28319;48.116;10.818;2023-02-28T02:49:48;2.20;;;2.00;;
41984;SDS011;28319;48.116;10.818;2023-02-28T02:54:55;2.60;;;2.20;;
41984;SDS011;28319;48.116;10.818;2023-02-28T03:00:03;3.03;;;2.43;;
41984;SDS011;28319;48.116;10.818;2023-02-28T03:05:15;2.80;;;2.60;;
41984;SDS011;28319;48.116;10.818;2023-02-28T03:10:30;3.37;;;2.53;;
41984;SDS011;28319;48.116;10.818;2023-02-28T03:15:38;2.60;;;2.40;;
41984;SDS011;28319;48.116;10.818;2023-02-28T03:20:56;3.47;;;2.47;;
41984;SDS011;28319;48.116;10.818;2023-02-28T03:26:11;3.77;;;2.47;;
41984;SDS011;28319;48.116;10.818;2023-02-28T03:31:21;2.57;;;2.27;;
41984;SDS011;28319;48.116;10.818;2023-02-28T03:36:33;3.67;;;2.63;;
41984;SDS011;28319;48.116;10.818;2023-02-28T03:41:47;3.07;;;2.77;;
41984;SDS011;28319;48.116;10.818;2023-02-28T03:47:03;3.57;;;2.53;;
41984;SDS011;28319;48.116;10.818;2023-02-28T03:52:11;3.20;;;2.40;;
41984;SDS011;28319;48.116;10.818;2023-02-28T03:57:17;3.63;;;2.53;;
41984;SDS011;28319;48.116;10.818;2023-02-28T04:02:24;4.73;;;2.40;;
41984;SDS011;28319;48.116;10.818;2023-02-28T04:07:30;3.93;;;2.93;;
41984;SDS011;28319;48.116;10.818;2023-02-28T04:12:32;3.43;;;2.90;;
41984;SDS011;28319;48.116;10.818;2023-02-28T04:17:34;2.90;;;2.60;;
41984;SDS011;28319;48.116;10.818;2023-02-28T04:22:38;3.93;;;2.83;;
41984;SDS011;28319;48.116;10.818;2023-02-28T04:27:39;4.27;;;2.50;;
41984;SDS011;28319;48.116;10.818;2023-02-28T04:32:44;4.07;;;2.70;;
41984;SDS011;28319;48.116;10.818;2023-02-28T04:37:47;4.00;;;2.90;;
41984;SDS011;28319;48.116;10.818;2023-02-28T04:42:49;3.63;;;2.80;;
41984;SDS011;28319;48.116;10.818;2023-02-28T04:47:51;4.10;;;3.20;;
41984;SDS011;28319;48.116;10.818;2023-02-28T04:52:55;3.53;;;2.90;;
41984;SDS011;28319;48.116;10.818;2023-02-28T04:57:58;4.23;;;3.27;;
41984;SDS011;28319;48.116;10.818;2023-02-28T05:03:00;4.97;;;3.23;;
41984;SDS011;28319;48.116;10.818;2023-02-28T05:08:03;4.43;;;3.00;;
41984;SDS011;28319;48.116;10.818;2023-02-28T05:13:05;4.50;;;3.47;;
41984;SDS011;28319;48.116;10.818;2023-02-28T05:18:08;6.60;;;4.20;;
41984;SDS011;28319;48.116;10.818;2023-02-28T05:23:11;4.03;;;3.63;;
41984;SDS011;28319;48.116;10.818;2023-02-28T05:28:14;5.60;;;3.73;;
41984;SDS011;28319;48.116;10.818;2023-02-28T05:33:16;4.67;;;3.70;;
41984;SDS011;28319;48.116;10.818;2023-02-28T05:38:19;5.93;;;4.13;;
41984;SDS011;28319;48.116;10.818;2023-02-28T05:43:21;4.87;;;3.90;;
41984;SDS011;28319;48.116;10.818;2023-02-28T05:48:23;9.50;;;4.30;;
41984;SDS011;28319;48.116;10.818;2023-02-28T05:53:27;7.27;;;4.50;;
41984;SDS011;28319;48.116;10.818;2023-02-28T05:58:30;5.70;;;4.30;;
41984;SDS011;28319;48.116;10.818;2023-02-28T06:03:32;5.17;;;4.20;;
41984;SDS011;28319;48.116;10.818;2023-02-28T06:08:36;6.50;;;4.90;;
41984;SDS011;28319;48.116;10.818;2023-02-28T06:13:38;6.27;;;4.93;;
41984;SDS011;28319;48.116;10.818;2023-02-28T06:18:40;10.63;;;5.70;;
41984;SDS011;28319;48.116;10.818;2023-02-28T06:23:43;7.73;;;5.33;;
41984;SDS011;28319;48.116;10.818;2023-02-28T06:28:45;7.70;;;5.37;;
41984;SDS011;28319;48.116;10.818;2023-02-28T06:33:47;7.73;;;5.67;;
41984;SDS011;28319;48.116;10.818;2023-02-28T06:38:51;6.90;;;5.10;;
41984;SDS011;28319;48.116;10.818;2023-02-28T06:43:55;7.30;;;5.33;;
41984;SDS011;28319;48.116;10.818;2023-02-28T06:48:57;8.80;;;5.70;;
41984;SDS011;28319;48.116;10.818;2023-02-28T06:54:01;8.83;;;5.73;;
41984;SDS011;28319;48.116;10.818;2023-02-28T06:59:03;11.40;;;6.53;;
41984;SDS011;28319;48.116;10.818;2023-02-28T07:04:06;9.23;;;6.17;;
41984;SDS011;28319;48.116;10.818;2023-02-28T07:09:09;8.30;;;6.33;;
41984;SDS011;28319;48.116;10.818;2023-02-28T07:14:12;9.17;;;5.97;;
41984;SDS011;28319;48.116;10.818;2023-02-28T07:19:14;10.73;;;6.33;;
41984;SDS011;28319;48.116;10.818;2023-02-28T07:24:18;8.87;;;5.70;;
41984;SDS011;28319;48.116;10.818;2023-02-28T07:29:20;10.07;;;6.03;;
41984;SDS011;28319;48.116;10.818;2023-02-28T07:34:22;9.73;;;6.47;;
41984;SDS011;28319;48.116;10.818;2023-02-28T07:39:27;8.37;;;6.53;;
41984;SDS011;28319;48.116;10.818;2023-02-28T07:44:29;9.80;;;6.50;;
41984;SDS011;28319;48.116;10.818;2023-02-28T07:49:33;10.20;;;6.90;;
41984;SDS011;28319;48.116;10.818;2023-02-28T07:54:36;9.40;;;6.50;;
41984;SDS011;28319;48.116;10.818;2023-02-28T07:59:38;8.07;;;6.20;;
41984;SDS011;28319;48.116;10.818;2023-02-28T08:04:41;8.83;;;6.57;;
41984;SDS011;28319;48.116;10.818;2023-02-28T08:09:44;9.20;;;6.50;;
41984;SDS011;28319;48.116;10.818;2023-02-28T08:14:47;9.07;;;5.93;;
41984;SDS011;28319;48.116;10.818;2023-02-28T08:19:49;8.63;;;6.97;;
41984;SDS011;28319;48.116;10.818;2023-02-28T08:24:52;11.47;;;7.50;;
41984;SDS011;28319;48.116;10.818;2023-02-28T08:29:55;10.00;;;6.67;;
41984;SDS011;28319;48.116;10.818;2023-02-28T08:34:57;11.43;;;6.97;;
41984;SDS011;28319;48.116;10.818;2023-02-28T08:40:00;10.13;;;6.77;;
41984;SDS011;28319;48.116;10.818;2023-02-28T08:45:04;11.37;;;6.87;;
41984;SDS011;28319;48.116;10.818;2023-02-28T08:50:07;10.60;;;6.90;;
41984;SDS011;28319;48.116;10.818;2023-02-28T08:55:11;8.53;;;6.63;;
41984;SDS011;28319;48.116;10.818;2023-02-28T09:00:13;10.07;;;7.03;;
41984;SDS011;28319;48.116;10.818;2023-02-28T09:05:15;8.83;;;6.63;;
41984;SDS011;28319;48.116;10.818;2023-02-28T09:10:19;9.57;;;7.23;;
41984;SDS011;28319;48.116;10.818;2023-02-28T09:15:21;10.60;;;6.73;;
41984;SDS011;28319;48.116;10.818;2023-02-28T09:20:24;10.10;;;7.03;;
41984;SDS011;28319;48.116;10.818;2023-02-28T09:25:27;14.17;;;8.03;;
41984;SDS011;28319;48.116;10.818;2023-02-28T09:30:29;10.60;;;6.73;;
41984;SDS011;28319;48.116;10.818;2023-02-28T09:35:32;11.57;;;7.37;;
41984;SDS011;28319;48.116;10.818;2023-02-28T09:40:36;10.40;;;8.07;;
41984;SDS011;28319;48.116;10.818;2023-02-28T09:45:39;12.13;;;7.67;;
41984;SDS011;28319;48.116;10.818;2023-02-28T09:50:43;12.07;;;7.70;;
41984;SDS011;28319;48.116;10.818;2023-02-28T09:55:50;11.53;;;7.93;;
41984;SDS011;28319;48.116;10.818;2023-02-28T10:00:56;10.30;;;7.93;;
41984;SDS011;28319;48.116;10.818;2023-02-28T10:06:02;9.77;;;7.10;;
41984;SDS011;28319;48.116;10.818;2023-02-28T10:11:07;13.80;;;8.10;;
41984;SDS011;28319;48.116;10.818;2023-02-28T10:16:13;12.17;;;7.57;;
41984;SDS011;28319;48.116;10.818;2023-02-28T10:21:17;11.87;;;7.67;;
41984;SDS011;28319;48.116;10.818;2023-02-28T10:26:22;10.53;;;7.33;;
41984;SDS011;28319;48.116;10.818;2023-02-28T10:31:25;10.53;;;7.80;;
41984;SDS011;28319;48.116;10.818;2023-02-28T10:36:27;11.53;;;6.93;;
41984;SDS011;28319;48.116;10.818;2023-02-28T10:41:31;10.87;;;8.00;;
41984;SDS011;28319;48.116;10.818;2023-02-28T10:46:36;10.63;;;7.40;;
41984;SDS011;28319;48.116;10.818;2023-02-28T10:51:39;11.53;;;7.60;;
41984;SDS011;28319;48.116;10.818;2023-02-28T10:56:43;16.47;;;7.93;;
41984;SDS011;28319;48.116;10.818;2023-02-28T11:01:46;11.07;;;7.27;;
41984;SDS011;28319;48.116;10.818;2023-02-28T11:06:56;12.70;;;8.03;;
41984;SDS011;28319;48.116;10.818;2023-02-28T11:12:00;13.43;;;8.10;;
41984;SDS011;28319;48.116;10.818;2023-02-28T11:17:11;39.17;;;16.23;;
41984;SDS011;28319;48.116;10.818;2023-02-28T11:22:17;15.30;;;9.33;;
41984;SDS011;28319;48.116;10.818;2023-02-28T11:27:39;14.73;;;8.47;;
41984;SDS011;28319;48.116;10.818;2023-02-28T11:32:47;14.87;;;8.20;;
41984;SDS011;28319;48.116;10.818;2023-02-28T11:37:50;11.83;;;7.67;;
41984;SDS011;28319;48.116;10.818;2023-02-28T11:42:56;10.57;;;7.07;;
41984;SDS011;28319;48.116;10.818;2023-02-28T11:48:01;11.03;;;8.20;;
41984;SDS011;28319;48.116;10.818;2023-02-28T11:53:10;11.60;;;7.57;;
41984;SDS011;28319;48.116;10.818;2023-02-28T11:58:26;11.30;;;8.03;;
41984;SDS011;28319;48.116;10.818;2023-02-28T12:03:31;10.67;;;6.83;;
41984;SDS011;28319;48.116;10.818;2023-02-28T12:08:42;9.97;;;6.90;;
41984;SDS011;28319;48.116;10.818;2023-02-28T12:13:48;9.70;;;7.10;;
41984;SDS011;28319;48.116;10.818;2023-02-28T12:19:13;10.57;;;7.20;;
41984;SDS011;28319;48.116;10.818;2023-02-28T12:24:22;12.50;;;7.23;;
41984;SDS011;28319;48.116;10.818;2023-02-28T12:29:28;11.37;;;7.27;;
41984;SDS011;28319;48.116;10.818;2023-02-28T12:34:31;10.07;;;7.03;;
41984;SDS011;28319;48.116;10.818;2023-02-28T12:39:34;9.90;;;6.43;;
41984;SDS011;28319;48.116;10.818;2023-02-28T12:44:40;11.07;;;7.13;;
41984;SDS011;28319;48.116;10.818;2023-02-28T12:49:46;8.40;;;7.10;;
41984;SDS011;28319;48.116;10.818;2023-02-28T12:54:51;14.33;;;8.13;;
41984;SDS011;28319;48.116;10.818;2023-02-28T12:59:59;11.30;;;7.10;;
41984;SDS011;28319;48.116;10.818;2023-02-28T13:05:16;10.37;;;7.33;;
41984;SDS011;28319;48.116;10.818;2023-02-28T13:10:23;9.67;;;7.23;;
41984;SDS011;28319;48.116;10.818;2023-02-28T13:15:28;9.47;;;7.00;;
41984;SDS011;28319;48.116;10.818;2023-02-28T13:20:46;8.97;;;6.93;;
41984;SDS011;28319;48.116;10.818;2023-02-28T13:25:51;8.47;;;6.93;;
41984;SDS011;28319;48.116;10.818;2023-02-28T13:31:13;9.43;;;6.57;;
41984;SDS011;28319;48.116;10.818;2023-02-28T13:36:25;8.33;;;6.57;;
41984;SDS011;28319;48.116;10.818;2023-02-28T13:41:46;9.57;;;6.90;;
41984;SDS011;28319;48.116;10.818;2023-02-28T13:52:18;9.43;;;7.03;;
41984;SDS011;28319;48.116;10.818;2023-02-28T13:57:23;9.37;;;6.80;;
41984;SDS011;28319;48.116;10.818;2023-02-28T14:07:48;9.60;;;7.43;;
41984;SDS011;28319;48.116;10.818;2023-02-28T14:12:57;8.90;;;6.57;;
41984;SDS011;28319;48.116;10.818;2023-02-28T14:18:03;9.23;;;6.67;;
41984;SDS011;28319;48.116;10.818;2023-02-28T14:23:10;8.70;;;6.80;;
41984;SDS011;28319;48.116;10.818;2023-02-28T14:28:18;9.80;;;7.17;;
41984;SDS011;28319;48.116;10.818;2023-02-28T14:33:22;8.60;;;6.63;;
41984;SDS011;28319;48.116;10.818;2023-02-28T14:38:29;7.87;;;6.40;;
41984;SDS011;28319;48.116;10.818;2023-02-28T14:43:34;8.00;;;6.37;;
41984;SDS011;28319;48.116;10.818;2023-02-28T14:48:36;9.73;;;6.63;;
41984;SDS011;28319;48.116;10.818;2023-02-28T14:53:40;8.10;;;6.57;;
41984;SDS011;28319;48.116;10.818;2023-02-28T14:58:50;8.70;;;6.20;;
41984;SDS011;28319;48.116;10.818;2023-02-28T15:04:00;9.60;;;6.10;;
41984;SDS011;28319;48.116;10.818;2023-02-28T15:09:13;11.03;;;6.43;;
41984;SDS011;28319;48.116;10.818;2023-02-28T15:14:20;8.50;;;5.80;;
41984;SDS011;28319;48.116;10.818;2023-02-28T15:19:23;9.27;;;6.30;;
41984;SDS011;28319;48.116;10.818;2023-02-28T15:24:33;7.80;;;6.23;;
41984;SDS011;28319;48.116;10.818;2023-02-28T15:29:42;8.20;;;5.63;;
41984;SDS011;28319;48.116;10.818;2023-02-28T15:34:45;6.93;;;5.87;;
41984;SDS011;28319;48.116;10.818;2023-02-28T15:39:49;6.63;;;5.90;;
41984;SDS011;28319;48.116;10.818;2023-02-28T15:44:52;7.40;;;6.20;;
41984;SDS011;28319;48.116;10.818;2023-02-28T15:49:56;11.00;;;7.43;;
41984;SDS011;28319;48.116;10.818;2023-02-28T15:55:02;7.23;;;5.67;;
41984;SDS011;28319;48.116;10.818;2023-02-28T16:00:10;9.40;;;6.60;;
41984;SDS011;28319;48.116;10.818;2023-02-28T16:05:21;10.43;;;6.33;;
41984;SDS011;28319;48.116;10.818;2023-02-28T16:10:29;11.00;;;6.50;;
41984;SDS011;28319;48.116;10.818;2023-02-28T16:15:33;8.67;;;6.40;;
41984;SDS011;28319;48.116;10.818;2023-02-28T16:20:41;8.03;;;6.53;;
41984;SDS011;28319;48.116;10.818;2023-02-28T16:25:46;7.37;;;6.10;;
41984;SDS011;28319;48.116;10.818;2023-02-28T16:30:48;7.93;;;5.80;;
41984;SDS011;28319;48.116;10.818;2023-02-28T16:35:52;9.67;;;5.57;;
41984;SDS011;28319;48.116;10.818;2023-02-28T16:40:57;10.53;;;6.17;;
41984;SDS011;28319;48.116;10.818;2023-02-28T16:46:00;8.93;;;6.67;;
41984;SDS011;28319;48.116;10.818;2023-02-28T16:51:03;11.97;;;7.63;;
41984;SDS011;28319;48.116;10.818;2023-02-28T16:56:09;9.03;;;6.40;;
41984;SDS011;28319;48.116;10.818;2023-02-28T17:01:14;12.47;;;7.80;;
41984;SDS011;28319;48.116;10.818;2023-02-28T17:06:18;14.63;;;11.13;;
41984;SDS011;28319;48.116;10.818;2023-02-28T17:11:23;14.47;;;10.13;;
41984;SDS011;28319;48.116;10.818;2023-02-28T17:16:27;16.67;;;10.07;;
41984;SDS011;28319;48.116;10.818;2023-02-28T17:21:33;15.17;;;8.73;;
41984;SDS011;28319;48.116;10.818;2023-02-28T17:26:38;10.77;;;7.50;;
41984;SDS011;28319;48.116;10.818;2023-02-28T17:31:40;25.10;;;13.77;;
41984;SDS011;28319;48.116;10.818;2023-02-28T17:36:45;9.07;;;6.40;;
41984;SDS011;28319;48.116;10.818;2023-02-28T17:41:48;8.47;;;6.43;;
41984;SDS011;28319;48.116;10.818;2023-02-28T17:46:51;17.07;;;9.80;;
41984;SDS011;28319;48.116;10.818;2023-02-28T17:51:55;9.10;;;6.27;;
41984;SDS011;28319;48.116;10.818;2023-02-28T17:56:59;10.10;;;6.83;;
41984;SDS011;28319;48.116;10.818;2023-02-28T18:02:02;8.60;;;6.43;;
41984;SDS011;28319;48.116;10.818;2023-02-28T18:07:05;9.67;;;7.03;;
41984;SDS011;28319;48.116;10.818;2023-02-28T18:12:08;8.20;;;6.17;;
41984;SDS011;28319;48.116;10.818;2023-02-28T18:17:11;7.90;;;5.57;;
41984;SDS011;28319;48.116;10.818;2023-02-28T18:22:13;10.03;;;6.67;;
41984;SDS011;28319;48.116;10.818;2023-02-28T18:27:18;10.20;;;6.47;;
41984;SDS011;28319;48.116;10.818;2023-02-28T18:32:20;11.70;;;7.93;;
41984;SDS011;28319;48.116;10.818;2023-02-28T18:37:22;13.30;;;8.93;;
41984;SDS011;28319;48.116;10.818;2023-02-28T18:42:26;13.40;;;9.80;;
41984;SDS011;28319;48.116;10.818;2023-02-28T18:47:29;10.40;;;7.27;;
41984;SDS011;28319;48.116;10.818;2023-02-28T18:52:31;10.27;;;7.47;;
41984;SDS011;28319;48.116;10.818;2023-02-28T18:57:35;17.67;;;11.17;;
41984;SDS011;28319;48.116;10.818;2023-02-28T19:02:37;20.70;;;12.10;;
41984;SDS011;28319;48.116;10.818;2023-02-28T19:07:39;12.70;;;8.60;;
41984;SDS011;28319;48.116;10.818;2023-02-28T19:12:43;13.43;;;8.80;;
41984;SDS011;28319;48.116;10.818;2023-02-28T19:17:46;15.73;;;10.73;;
41984;SDS011;28319;48.116;10.818;2023-02-28T19:22:48;14.10;;;9.27;;
41984;SDS011;28319;48.116;10.818;2023-02-28T19:27:52;19.30;;;11.03;;
41984;SDS011;28319;48.116;10.818;2023-02-28T19:32:55;12.80;;;7.73;;
41984;SDS011;28319;48.116;10.818;2023-02-28T19:37:57;20.57;;;11.77;;
41984;SDS011;28319;48.116;10.818;2023-02-28T19:43:01;13.87;;;9.13;;
41984;SDS011;28319;48.116;10.818;2023-02-28T19:48:03;12.47;;;8.23;;
41984;SDS011;28319;48.116;10.818;2023-02-28T19:53:08;14.27;;;8.53;;
41984;SDS011;28319;48.116;10.818;2023-02-28T19:58:12;11.57;;;8.27;;
41984;SDS011;28319;48.116;10.818;2023-02-28T20:03:15;15.83;;;9.33;;
41984;SDS011;28319;48.116;10.818;2023-02-28T20:08:17;12.63;;;8.43;;
41984;SDS011;28319;48.116;10.818;2023-02-28T20:13:21;13.10;;;8.70;;
41984;SDS011;28319;48.116;10.818;2023-02-28T20:18:24;12.13;;;8.20;;
41984;SDS011;28319;48.116;10.818;2023-02-28T20:23:26;14.30;;;9.40;;
41984;SDS011;28319;48.116;10.818;2023-02-28T20:28:30;15.03;;;9.87;;
41984;SDS011;28319;48.116;10.818;2023-02-28T20:33:32;13.13;;;8.97;;
41984;SDS011;28319;48.116;10.818;2023-02-28T20:38:34;13.47;;;8.87;;
41984;SDS011;28319;48.116;10.818;2023-02-28T20:43:38;18.33;;;11.57;;
41984;SDS011;28319;48.116;10.818;2023-02-28T20:48:40;18.30;;;11.73;;
41984;SDS011;28319;48.116;10.818;2023-02-28T20:53:43;13.23;;;9.70;;
41984;SDS011;28319;48.116;10.818;2023-02-28T20:58:47;13.10;;;9.03;;
41984;SDS011;28319;48.116;10.818;2023-02-28T21:03:49;12.43;;;8.20;;
41984;SDS011;28319;48.116;10.818;2023-02-28T21:08:52;12.07;;;8.03;;
41984;SDS011;28319;48.116;10.818;2023-02-28T21:13:57;13.83;;;8.43;;
41984;SDS011;28319;48.116;10.818;2023-02-28T21:19:00;12.90;;;8.70;;
41984;SDS011;28319;48.116;10.818;2023-02-28T21:24:04;11.73;;;7.93;;
41984;SDS011;28319;48.116;10.818;2023-02-28T21:29:08;10.50;;;7.50;;
41984;SDS011;28319;48.116;10.818;2023-02-28T21:34:11;12.30;;;8.40;;
41984;SDS011;28319;48.116;10.818;2023-02-28T21:39:14;14.53;;;8.47;;
41984;SDS011;28319;48.116;10.818;2023-02-28T21:44:18;13.43;;;8.10;;
41984;SDS011;28319;48.116;10.818;2023-02-28T21:49:21;12.47;;;8.83;;
41984;SDS011;28319;48.116;10.818;2023-02-28T21:54:24;11.83;;;8.07;;
41984;SDS011;28319;48.116;10.818;2023-02-28T21:59:28;13.13;;;8.00;;
41984;SDS011;28319;48.116;10.818;2023-02-28T22:04:30;13.00;;;8.03;;
41984;SDS011;28319;48.116;10.818;2023-02-28T22:09:32;12.60;;;8.10;;
41984;SDS011;28319;48.116;10.818;2023-02-28T22:14:36;13.63;;;8.47;;
41984;SDS011;28319;48.116;10.818;2023-02-28T22:19:41;10.77;;;7.67;;
41984;SDS011;28319;48.116;10.818;2023-02-28T22:24:43;15.80;;;8.80;;
41984;SDS011;28319;48.116;10.818;2023-02-28T22:29:47;13.17;;;8.73;;
41984;SDS011;28319;48.116;10.818;2023-02-28T22:34:49;16.30;;;9.03;;
41984;SDS011;28319;48.116;10.818;2023-02-28T22:39:52;14.80;;;8.47;;
41984;SDS011;28319;48.116;10.818;2023-02-28T22:44:55;13.07;;;8.37;;
41984;SDS011;28319;48.116;10.818;2023-02-28T22:49:57;14.37;;;8.43;;
41984;SDS011;28319;48.116;10.818;2023-02-28T22:55:00;13.73;;;8.87;;
41984;SDS011;28319;48.116;10.818;2023-02-28T23:00:05;13.57;;;8.37;;
41984;SDS011;28319;48.116;10.818;2023-02-28T23:05:09;15.80;;;9.23;;
41984;SDS011;28319;48.116;10.818;2023-02-28T23:10:12;15.33;;;9.23;;
41984;SDS011;28319;48.116;10.818;2023-02-28T23:15:16;11.77;;;8.63;;
41984;SDS011;28319;48.116;10.818;2023-02-28T23:20:19;12.57;;;8.43;;
41984;SDS011;28319;48.116;10.818;2023-02-28T23:25:21;11.70;;;8.43;;
41984;SDS011;28319;48.116;10.818;2023-02-28T23:30:25;13.27;;;8.47;;
41984;SDS011;28319;48.116;10.818;2023-02-28T23:35:28;11.73;;;8.53;;
41984;SDS011;28319;48.116;10.818;2023-02-28T23:40:32;14.47;;;8.10;;
41984;SDS011;28319;48.116;10.818;2023-02-28T23:45:38;12.40;;;8.47;;
41984;SDS011;28319;48.116;10.818;2023-02-28T23:50:45;11.70;;;7.50;;
41984;SDS011;28319;48.116;10.818;2023-02-28T23:55:47;11.93;;;8.43;;
